Terminal Aerodrome Forecast
Issued by NWS Corpus Christi, TX

Home | Current Version | Previous Version | Text Only | Print | Product List | Glossary On
Versions: 1 2 3 4 5 6 7 8 9 10 11 12 13 14 15 16 17 18 19 20 21 22 23 24 25
000
FTUS44 KCRP 302300
TAFCRP
TAF
KCRP 302334Z 3100/3124 07016G22KT P6SM BKN014 OVC200
     FM310200 08014KT P6SM OVC014
     FM310600 09010KT P6SM SCT007 OVC014
      TEMPO 3109/3113 5SM BR BKN007 OVC014
     FM311400 12013KT P6SM BKN014 OVC025
     FM311800 15019G27KT P6SM BKN025 OVC120=

USA.gov is the U.S. government's official web portal to all federal, state and local government web resources and services.